sensor_id;sensor_type;location;lat;lon;timestamp;P1;durP1;ratioP1;P2;durP2;ratioP2
21110;SDS011;10713;51.912;4.494;2022-10-31T00:00:51;6.88;;;2.45;;
21110;SDS011;10713;51.912;4.494;2022-10-31T00:03:16;7.03;;;2.63;;
21110;SDS011;10713;51.912;4.494;2022-10-31T00:05:46;5.50;;;2.90;;
21110;SDS011;10713;51.912;4.494;2022-10-31T00:08:13;4.05;;;2.38;;
21110;SDS011;10713;51.912;4.494;2022-10-31T00:10:38;3.55;;;2.38;;
21110;SDS011;10713;51.912;4.494;2022-10-31T00:13:05;5.72;;;2.85;;
21110;SDS011;10713;51.912;4.494;2022-10-31T00:15:32;4.78;;;3.03;;
21110;SDS011;10713;51.912;4.494;2022-10-31T00:18:02;6.05;;;3.60;;
21110;SDS011;10713;51.912;4.494;2022-10-31T00:20:28;4.28;;;2.33;;
21110;SDS011;10713;51.912;4.494;2022-10-31T00:22:57;7.30;;;3.38;;
21110;SDS011;10713;51.912;4.494;2022-10-31T00:25:23;6.95;;;2.97;;
21110;SDS011;10713;51.912;4.494;2022-10-31T00:27:48;6.65;;;3.28;;
21110;SDS011;10713;51.912;4.494;2022-10-31T00:30:13;7.07;;;3.35;;
21110;SDS011;10713;51.912;4.494;2022-10-31T00:32:39;6.82;;;3.13;;
21110;SDS011;10713;51.912;4.494;2022-10-31T00:35:04;5.05;;;3.20;;
21110;SDS011;10713;51.912;4.494;2022-10-31T00:37:30;6.03;;;2.92;;
21110;SDS011;10713;51.912;4.494;2022-10-31T00:39:55;6.47;;;3.88;;
21110;SDS011;10713;51.912;4.494;2022-10-31T00:42:20;5.38;;;3.42;;
21110;SDS011;10713;51.912;4.494;2022-10-31T00:44:46;7.63;;;3.40;;
21110;SDS011;10713;51.912;4.494;2022-10-31T00:47:11;6.05;;;3.72;;
21110;SDS011;10713;51.912;4.494;2022-10-31T00:49:36;5.97;;;3.65;;
21110;SDS011;10713;51.912;4.494;2022-10-31T00:52:02;8.52;;;4.47;;
21110;SDS011;10713;51.912;4.494;2022-10-31T00:54:27;7.78;;;3.85;;
21110;SDS011;10713;51.912;4.494;2022-10-31T00:56:52;5.40;;;2.63;;
21110;SDS011;10713;51.912;4.494;2022-10-31T00:59:18;8.02;;;3.80;;
21110;SDS011;10713;51.912;4.494;2022-10-31T01:01:43;8.73;;;4.07;;
21110;SDS011;10713;51.912;4.494;2022-10-31T01:04:08;9.48;;;4.35;;
21110;SDS011;10713;51.912;4.494;2022-10-31T01:06:34;10.70;;;5.35;;
21110;SDS011;10713;51.912;4.494;2022-10-31T01:08:59;7.85;;;3.15;;
21110;SDS011;10713;51.912;4.494;2022-10-31T01:11:24;11.95;;;5.05;;
21110;SDS011;10713;51.912;4.494;2022-10-31T01:13:51;9.90;;;5.57;;
21110;SDS011;10713;51.912;4.494;2022-10-31T01:16:18;8.35;;;5.03;;
21110;SDS011;10713;51.912;4.494;2022-10-31T01:18:45;8.85;;;5.13;;
21110;SDS011;10713;51.912;4.494;2022-10-31T01:21:12;11.65;;;6.15;;
21110;SDS011;10713;51.912;4.494;2022-10-31T01:23:38;9.13;;;5.85;;
21110;SDS011;10713;51.912;4.494;2022-10-31T01:26:11;10.20;;;5.25;;
21110;SDS011;10713;51.912;4.494;2022-10-31T01:28:39;12.68;;;5.63;;
21110;SDS011;10713;51.912;4.494;2022-10-31T01:31:09;10.13;;;5.50;;
21110;SDS011;10713;51.912;4.494;2022-10-31T01:33:35;9.20;;;5.78;;
21110;SDS011;10713;51.912;4.494;2022-10-31T01:36:01;9.40;;;5.60;;
21110;SDS011;10713;51.912;4.494;2022-10-31T01:38:35;10.02;;;5.25;;
21110;SDS011;10713;51.912;4.494;2022-10-31T01:41:00;10.48;;;6.35;;
21110;SDS011;10713;51.912;4.494;2022-10-31T01:43:41;11.45;;;5.88;;
21110;SDS011;10713;51.912;4.494;2022-10-31T01:46:10;9.63;;;6.60;;
21110;SDS011;10713;51.912;4.494;2022-10-31T01:48:36;14.45;;;6.57;;
21110;SDS011;10713;51.912;4.494;2022-10-31T01:51:04;15.35;;;6.22;;
21110;SDS011;10713;51.912;4.494;2022-10-31T01:53:31;11.00;;;5.95;;
21110;SDS011;10713;51.912;4.494;2022-10-31T01:55:57;11.73;;;5.53;;
21110;SDS011;10713;51.912;4.494;2022-10-31T01:58:25;12.82;;;6.22;;
21110;SDS011;10713;51.912;4.494;2022-10-31T02:00:54;13.50;;;7.68;;
21110;SDS011;10713;51.912;4.494;2022-10-31T02:03:22;14.23;;;7.03;;
21110;SDS011;10713;51.912;4.494;2022-10-31T02:05:49;10.93;;;6.70;;
21110;SDS011;10713;51.912;4.494;2022-10-31T02:10:46;13.40;;;7.82;;
21110;SDS011;10713;51.912;4.494;2022-10-31T02:13:12;16.27;;;7.53;;
21110;SDS011;10713;51.912;4.494;2022-10-31T02:15:38;13.23;;;7.60;;
21110;SDS011;10713;51.912;4.494;2022-10-31T02:18:05;13.00;;;6.90;;
21110;SDS011;10713;51.912;4.494;2022-10-31T02:20:33;13.70;;;7.50;;
21110;SDS011;10713;51.912;4.494;2022-10-31T02:23:44;13.52;;;6.15;;
21110;SDS011;10713;51.912;4.494;2022-10-31T02:26:15;15.23;;;7.35;;
21110;SDS011;10713;51.912;4.494;2022-10-31T02:30:04;15.70;;;8.20;;
21110;SDS011;10713;51.912;4.494;2022-10-31T02:32:25;17.38;;;8.10;;
21110;SDS011;10713;51.912;4.494;2022-10-31T02:37:48;13.35;;;7.00;;
21110;SDS011;10713;51.912;4.494;2022-10-31T02:45:45;14.25;;;7.43;;
21110;SDS011;10713;51.912;4.494;2022-10-31T02:48:21;13.82;;;8.68;;
21110;SDS011;10713;51.912;4.494;2022-10-31T02:51:01;20.73;;;9.60;;
21110;SDS011;10713;51.912;4.494;2022-10-31T02:53:34;16.38;;;9.70;;
21110;SDS011;10713;51.912;4.494;2022-10-31T02:56:04;13.85;;;7.78;;
21110;SDS011;10713;51.912;4.494;2022-10-31T02:58:31;11.80;;;6.97;;
21110;SDS011;10713;51.912;4.494;2022-10-31T03:06:33;21.55;;;11.40;;
21110;SDS011;10713;51.912;4.494;2022-10-31T03:14:43;18.95;;;10.23;;
21110;SDS011;10713;51.912;4.494;2022-10-31T03:17:13;21.38;;;11.32;;
21110;SDS011;10713;51.912;4.494;2022-10-31T03:19:47;18.45;;;10.90;;
21110;SDS011;10713;51.912;4.494;2022-10-31T03:22:22;20.80;;;11.57;;
21110;SDS011;10713;51.912;4.494;2022-10-31T03:24:50;21.20;;;10.68;;
21110;SDS011;10713;51.912;4.494;2022-10-31T03:27:21;21.25;;;11.00;;
21110;SDS011;10713;51.912;4.494;2022-10-31T03:29:50;21.58;;;10.93;;
21110;SDS011;10713;51.912;4.494;2022-10-31T03:32:22;16.73;;;9.70;;
21110;SDS011;10713;51.912;4.494;2022-10-31T03:34:53;19.80;;;11.20;;
21110;SDS011;10713;51.912;4.494;2022-10-31T03:37:22;20.98;;;11.35;;
21110;SDS011;10713;51.912;4.494;2022-10-31T03:39:50;18.98;;;11.07;;
21110;SDS011;10713;51.912;4.494;2022-10-31T03:42:18;20.98;;;10.35;;
21110;SDS011;10713;51.912;4.494;2022-10-31T03:44:49;18.80;;;11.10;;
21110;SDS011;10713;51.912;4.494;2022-10-31T03:47:18;21.77;;;10.77;;
21110;SDS011;10713;51.912;4.494;2022-10-31T03:49:44;18.30;;;10.70;;
21110;SDS011;10713;51.912;4.494;2022-10-31T03:54:59;18.30;;;9.88;;
21110;SDS011;10713;51.912;4.494;2022-10-31T03:57:41;19.92;;;10.95;;
21110;SDS011;10713;51.912;4.494;2022-10-31T04:00:12;18.15;;;10.82;;
21110;SDS011;10713;51.912;4.494;2022-10-31T04:02:40;20.55;;;11.48;;
21110;SDS011;10713;51.912;4.494;2022-10-31T04:05:10;23.20;;;11.05;;
21110;SDS011;10713;51.912;4.494;2022-10-31T04:07:39;19.38;;;10.63;;
21110;SDS011;10713;51.912;4.494;2022-10-31T04:10:10;19.58;;;10.18;;
21110;SDS011;10713;51.912;4.494;2022-10-31T04:12:38;18.73;;;11.38;;
21110;SDS011;10713;51.912;4.494;2022-10-31T04:15:04;22.17;;;11.65;;
21110;SDS011;10713;51.912;4.494;2022-10-31T04:17:31;17.15;;;10.75;;
21110;SDS011;10713;51.912;4.494;2022-10-31T04:20:02;17.08;;;9.90;;
21110;SDS011;10713;51.912;4.494;2022-10-31T04:22:28;27.15;;;12.43;;
21110;SDS011;10713;51.912;4.494;2022-10-31T04:24:53;23.75;;;12.25;;
21110;SDS011;10713;51.912;4.494;2022-10-31T04:27:19;20.80;;;10.52;;
21110;SDS011;10713;51.912;4.494;2022-10-31T04:29:44;22.58;;;12.90;;
21110;SDS011;10713;51.912;4.494;2022-10-31T04:32:09;22.27;;;12.15;;
21110;SDS011;10713;51.912;4.494;2022-10-31T04:34:35;18.63;;;9.73;;
21110;SDS011;10713;51.912;4.494;2022-10-31T04:37:00;22.05;;;12.63;;
21110;SDS011;10713;51.912;4.494;2022-10-31T04:39:26;22.63;;;11.70;;
21110;SDS011;10713;51.912;4.494;2022-10-31T04:41:51;22.35;;;11.73;;
21110;SDS011;10713;51.912;4.494;2022-10-31T04:44:16;21.55;;;13.10;;
21110;SDS011;10713;51.912;4.494;2022-10-31T04:46:42;20.85;;;11.43;;
21110;SDS011;10713;51.912;4.494;2022-10-31T04:49:07;23.73;;;13.52;;
21110;SDS011;10713;51.912;4.494;2022-10-31T04:51:32;25.08;;;13.18;;
21110;SDS011;10713;51.912;4.494;2022-10-31T04:53:57;21.35;;;12.80;;
21110;SDS011;10713;51.912;4.494;2022-10-31T04:56:23;21.92;;;13.15;;
21110;SDS011;10713;51.912;4.494;2022-10-31T04:58:48;22.90;;;13.13;;
21110;SDS011;10713;51.912;4.494;2022-10-31T05:01:13;21.77;;;12.20;;
21110;SDS011;10713;51.912;4.494;2022-10-31T05:03:39;24.83;;;13.57;;
21110;SDS011;10713;51.912;4.494;2022-10-31T05:06:05;25.70;;;13.15;;
21110;SDS011;10713;51.912;4.494;2022-10-31T05:08:30;25.10;;;13.57;;
21110;SDS011;10713;51.912;4.494;2022-10-31T05:10:59;26.10;;;13.23;;
21110;SDS011;10713;51.912;4.494;2022-10-31T05:13:25;27.25;;;14.45;;
21110;SDS011;10713;51.912;4.494;2022-10-31T05:15:51;25.35;;;14.57;;
21110;SDS011;10713;51.912;4.494;2022-10-31T05:18:16;25.45;;;13.20;;
21110;SDS011;10713;51.912;4.494;2022-10-31T05:20:41;23.95;;;13.63;;
21110;SDS011;10713;51.912;4.494;2022-10-31T05:23:07;28.38;;;14.25;;
21110;SDS011;10713;51.912;4.494;2022-10-31T05:25:32;27.48;;;14.70;;
21110;SDS011;10713;51.912;4.494;2022-10-31T05:27:58;24.38;;;14.88;;
21110;SDS011;10713;51.912;4.494;2022-10-31T05:30:24;25.80;;;14.13;;
21110;SDS011;10713;51.912;4.494;2022-10-31T05:32:52;28.63;;;16.02;;
21110;SDS011;10713;51.912;4.494;2022-10-31T05:35:22;24.67;;;14.98;;
21110;SDS011;10713;51.912;4.494;2022-10-31T05:37:49;30.35;;;14.38;;
21110;SDS011;10713;51.912;4.494;2022-10-31T05:40:15;25.75;;;15.00;;
21110;SDS011;10713;51.912;4.494;2022-10-31T05:42:42;31.80;;;15.40;;
21110;SDS011;10713;51.912;4.494;2022-10-31T05:45:08;31.77;;;17.67;;
21110;SDS011;10713;51.912;4.494;2022-10-31T05:47:35;26.48;;;13.95;;
21110;SDS011;10713;51.912;4.494;2022-10-31T05:50:01;32.97;;;16.77;;
21110;SDS011;10713;51.912;4.494;2022-10-31T05:52:26;31.58;;;16.88;;
21110;SDS011;10713;51.912;4.494;2022-10-31T05:54:52;30.70;;;16.52;;
21110;SDS011;10713;51.912;4.494;2022-10-31T05:57:17;29.33;;;16.70;;
21110;SDS011;10713;51.912;4.494;2022-10-31T05:59:42;34.22;;;17.00;;
21110;SDS011;10713;51.912;4.494;2022-10-31T06:02:08;33.50;;;17.27;;
21110;SDS011;10713;51.912;4.494;2022-10-31T06:04:33;39.55;;;17.25;;
21110;SDS011;10713;51.912;4.494;2022-10-31T06:06:58;30.75;;;16.23;;
21110;SDS011;10713;51.912;4.494;2022-10-31T06:09:24;33.13;;;18.25;;
21110;SDS011;10713;51.912;4.494;2022-10-31T06:11:49;31.75;;;18.02;;
21110;SDS011;10713;51.912;4.494;2022-10-31T06:14:14;33.33;;;18.40;;
21110;SDS011;10713;51.912;4.494;2022-10-31T06:16:40;40.97;;;16.25;;
21110;SDS011;10713;51.912;4.494;2022-10-31T06:19:05;29.33;;;17.48;;
21110;SDS011;10713;51.912;4.494;2022-10-31T06:21:30;36.17;;;17.65;;
21110;SDS011;10713;51.912;4.494;2022-10-31T06:23:56;38.53;;;17.58;;
21110;SDS011;10713;51.912;4.494;2022-10-31T06:26:22;38.13;;;18.70;;
21110;SDS011;10713;51.912;4.494;2022-10-31T06:28:47;36.45;;;18.33;;
21110;SDS011;10713;51.912;4.494;2022-10-31T06:31:12;36.22;;;18.00;;
21110;SDS011;10713;51.912;4.494;2022-10-31T06:33:40;34.83;;;17.10;;
21110;SDS011;10713;51.912;4.494;2022-10-31T06:36:06;39.75;;;18.73;;
21110;SDS011;10713;51.912;4.494;2022-10-31T06:38:31;36.05;;;18.00;;
21110;SDS011;10713;51.912;4.494;2022-10-31T06:40:57;36.50;;;18.20;;
21110;SDS011;10713;51.912;4.494;2022-10-31T06:43:22;39.33;;;18.63;;
21110;SDS011;10713;51.912;4.494;2022-10-31T06:45:48;37.65;;;18.58;;
21110;SDS011;10713;51.912;4.494;2022-10-31T06:48:13;36.50;;;19.92;;
21110;SDS011;10713;51.912;4.494;2022-10-31T06:50:38;36.80;;;18.58;;
21110;SDS011;10713;51.912;4.494;2022-10-31T06:53:04;32.78;;;17.52;;
21110;SDS011;10713;51.912;4.494;2022-10-31T06:55:29;33.75;;;18.55;;
21110;SDS011;10713;51.912;4.494;2022-10-31T06:57:56;38.63;;;17.85;;
21110;SDS011;10713;51.912;4.494;2022-10-31T07:00:23;40.38;;;17.63;;
21110;SDS011;10713;51.912;4.494;2022-10-31T07:05:24;42.42;;;19.13;;
21110;SDS011;10713;51.912;4.494;2022-10-31T07:07:57;45.28;;;19.17;;
21110;SDS011;10713;51.912;4.494;2022-10-31T07:10:24;40.92;;;19.75;;
21110;SDS011;10713;51.912;4.494;2022-10-31T07:12:54;27.92;;;14.70;;
21110;SDS011;10713;51.912;4.494;2022-10-31T07:15:24;37.78;;;19.38;;
21110;SDS011;10713;51.912;4.494;2022-10-31T07:17:50;31.67;;;16.13;;
21110;SDS011;10713;51.912;4.494;2022-10-31T07:20:16;40.38;;;19.00;;
21110;SDS011;10713;51.912;4.494;2022-10-31T07:22:41;32.67;;;19.05;;
21110;SDS011;10713;51.912;4.494;2022-10-31T07:25:07;34.28;;;16.80;;
21110;SDS011;10713;51.912;4.494;2022-10-31T07:27:36;43.28;;;19.85;;
21110;SDS011;10713;51.912;4.494;2022-10-31T07:30:02;40.08;;;20.52;;
21110;SDS011;10713;51.912;4.494;2022-10-31T07:32:36;44.33;;;21.23;;
21110;SDS011;10713;51.912;4.494;2022-10-31T07:35:02;45.97;;;20.30;;
21110;SDS011;10713;51.912;4.494;2022-10-31T07:37:28;38.00;;;19.70;;
21110;SDS011;10713;51.912;4.494;2022-10-31T07:39:53;43.40;;;19.33;;
21110;SDS011;10713;51.912;4.494;2022-10-31T07:42:18;39.08;;;18.88;;
21110;SDS011;10713;51.912;4.494;2022-10-31T07:44:44;42.85;;;19.27;;
21110;SDS011;10713;51.912;4.494;2022-10-31T07:47:09;38.95;;;20.10;;
21110;SDS011;10713;51.912;4.494;2022-10-31T07:49:35;41.47;;;20.70;;
21110;SDS011;10713;51.912;4.494;2022-10-31T07:52:00;40.22;;;19.35;;
21110;SDS011;10713;51.912;4.494;2022-10-31T07:54:25;53.15;;;22.25;;
21110;SDS011;10713;51.912;4.494;2022-10-31T07:56:51;48.15;;;20.65;;
21110;SDS011;10713;51.912;4.494;2022-10-31T07:59:16;58.05;;;22.65;;
21110;SDS011;10713;51.912;4.494;2022-10-31T08:01:41;69.03;;;22.15;;
21110;SDS011;10713;51.912;4.494;2022-10-31T08:04:07;64.07;;;23.67;;
21110;SDS011;10713;51.912;4.494;2022-10-31T08:06:32;53.28;;;21.10;;
21110;SDS011;10713;51.912;4.494;2022-10-31T08:08:59;71.18;;;23.23;;
21110;SDS011;10713;51.912;4.494;2022-10-31T08:11:24;52.30;;;21.33;;
21110;SDS011;10713;51.912;4.494;2022-10-31T08:13:49;57.47;;;23.60;;
21110;SDS011;10713;51.912;4.494;2022-10-31T08:16:15;58.30;;;23.30;;
21110;SDS011;10713;51.912;4.494;2022-10-31T08:18:40;61.08;;;23.63;;
21110;SDS011;10713;51.912;4.494;2022-10-31T08:21:05;58.03;;;22.70;;
21110;SDS011;10713;51.912;4.494;2022-10-31T08:23:31;57.45;;;22.17;;
21110;SDS011;10713;51.912;4.494;2022-10-31T08:25:57;57.75;;;22.23;;
21110;SDS011;10713;51.912;4.494;2022-10-31T08:28:22;42.63;;;18.25;;
21110;SDS011;10713;51.912;4.494;2022-10-31T08:30:47;53.55;;;22.67;;
21110;SDS011;10713;51.912;4.494;2022-10-31T08:33:17;45.50;;;22.00;;
21110;SDS011;10713;51.912;4.494;2022-10-31T08:35:43;43.22;;;20.73;;
21110;SDS011;10713;51.912;4.494;2022-10-31T08:38:10;40.45;;;21.40;;
21110;SDS011;10713;51.912;4.494;2022-10-31T08:40:36;36.80;;;17.95;;
21110;SDS011;10713;51.912;4.494;2022-10-31T08:43:03;37.25;;;19.73;;
21110;SDS011;10713;51.912;4.494;2022-10-31T08:45:31;37.88;;;18.58;;
21110;SDS011;10713;51.912;4.494;2022-10-31T08:47:58;34.00;;;18.13;;
21110;SDS011;10713;51.912;4.494;2022-10-31T08:50:25;31.65;;;16.95;;
21110;SDS011;10713;51.912;4.494;2022-10-31T08:52:51;32.08;;;16.65;;
21110;SDS011;10713;51.912;4.494;2022-10-31T08:55:17;29.58;;;17.05;;
21110;SDS011;10713;51.912;4.494;2022-10-31T08:57:42;31.38;;;16.25;;
21110;SDS011;10713;51.912;4.494;2022-10-31T09:00:08;29.60;;;16.48;;
21110;SDS011;10713;51.912;4.494;2022-10-31T09:02:33;31.75;;;15.93;;
21110;SDS011;10713;51.912;4.494;2022-10-31T09:04:59;27.60;;;15.45;;
21110;SDS011;10713;51.912;4.494;2022-10-31T09:07:24;26.52;;;15.70;;
21110;SDS011;10713;51.912;4.494;2022-10-31T09:09:49;29.90;;;14.32;;
21110;SDS011;10713;51.912;4.494;2022-10-31T09:12:15;26.30;;;14.32;;
21110;SDS011;10713;51.912;4.494;2022-10-31T09:14:40;23.15;;;12.85;;
21110;SDS011;10713;51.912;4.494;2022-10-31T09:17:05;25.08;;;14.35;;
21110;SDS011;10713;51.912;4.494;2022-10-31T09:19:31;29.92;;;14.90;;
21110;SDS011;10713;51.912;4.494;2022-10-31T09:21:56;24.52;;;14.55;;
21110;SDS011;10713;51.912;4.494;2022-10-31T09:24:21;28.02;;;14.30;;
21110;SDS011;10713;51.912;4.494;2022-10-31T09:26:47;28.08;;;14.88;;
21110;SDS011;10713;51.912;4.494;2022-10-31T09:29:12;25.35;;;12.73;;
21110;SDS011;10713;51.912;4.494;2022-10-31T09:31:38;23.88;;;13.43;;
21110;SDS011;10713;51.912;4.494;2022-10-31T09:34:03;26.30;;;13.10;;
21110;SDS011;10713;51.912;4.494;2022-10-31T09:36:29;25.42;;;13.88;;
21110;SDS011;10713;51.912;4.494;2022-10-31T09:38:54;26.65;;;14.60;;
21110;SDS011;10713;51.912;4.494;2022-10-31T09:41:24;25.73;;;13.32;;
21110;SDS011;10713;51.912;4.494;2022-10-31T09:44:15;26.83;;;14.13;;
21110;SDS011;10713;51.912;4.494;2022-10-31T09:49:36;29.75;;;14.55;;
21110;SDS011;10713;51.912;4.494;2022-10-31T09:52:19;25.90;;;13.30;;
21110;SDS011;10713;51.912;4.494;2022-10-31T09:54:53;23.52;;;13.57;;
21110;SDS011;10713;51.912;4.494;2022-10-31T09:57:25;27.83;;;14.63;;
21110;SDS011;10713;51.912;4.494;2022-10-31T09:59:54;26.20;;;13.98;;
21110;SDS011;10713;51.912;4.494;2022-10-31T10:02:30;24.10;;;13.60;;
21110;SDS011;10713;51.912;4.494;2022-10-31T10:05:12;29.77;;;14.55;;
21110;SDS011;10713;51.912;4.494;2022-10-31T10:07:57;27.38;;;14.80;;
21110;SDS011;10713;51.912;4.494;2022-10-31T10:19:20;26.25;;;14.15;;
21110;SDS011;10713;51.912;4.494;2022-10-31T10:24:46;27.20;;;14.35;;
21110;SDS011;10713;51.912;4.494;2022-10-31T10:32:47;27.55;;;13.43;;
21110;SDS011;10713;51.912;4.494;2022-10-31T10:35:29;23.20;;;12.85;;
21110;SDS011;10713;51.912;4.494;2022-10-31T10:38:17;29.05;;;13.23;;
21110;SDS011;10713;51.912;4.494;2022-10-31T10:40:49;23.33;;;12.18;;
21110;SDS011;10713;51.912;4.494;2022-10-31T10:43:21;23.27;;;12.02;;
21110;SDS011;10713;51.912;4.494;2022-10-31T10:57:06;29.70;;;14.07;;
21110;SDS011;10713;51.912;4.494;2022-10-31T10:59:40;24.95;;;12.60;;
21110;SDS011;10713;51.912;4.494;2022-10-31T11:02:19;29.25;;;14.20;;
21110;SDS011;10713;51.912;4.494;2022-10-31T11:04:48;33.00;;;14.00;;
21110;SDS011;10713;51.912;4.494;2022-10-31T11:07:16;29.35;;;14.35;;
21110;SDS011;10713;51.912;4.494;2022-10-31T11:09:42;34.72;;;15.27;;
21110;SDS011;10713;51.912;4.494;2022-10-31T11:12:09;30.75;;;14.43;;
21110;SDS011;10713;51.912;4.494;2022-10-31T11:14:47;27.10;;;14.43;;
21110;SDS011;10713;51.912;4.494;2022-10-31T11:20:01;34.45;;;16.42;;
21110;SDS011;10713;51.912;4.494;2022-10-31T11:22:47;34.35;;;15.60;;
21110;SDS011;10713;51.912;4.494;2022-10-31T11:25:31;30.13;;;15.38;;
21110;SDS011;10713;51.912;4.494;2022-10-31T11:30:29;29.27;;;16.65;;
21110;SDS011;10713;51.912;4.494;2022-10-31T11:32:56;34.47;;;15.45;;
21110;SDS011;10713;51.912;4.494;2022-10-31T11:35:22;30.23;;;15.68;;
21110;SDS011;10713;51.912;4.494;2022-10-31T11:37:50;38.92;;;19.75;;
21110;SDS011;10713;51.912;4.494;2022-10-31T11:40:25;33.47;;;17.65;;
21110;SDS011;10713;51.912;4.494;2022-10-31T11:42:52;31.92;;;17.83;;
21110;SDS011;10713;51.912;4.494;2022-10-31T11:47:50;34.63;;;17.38;;
21110;SDS011;10713;51.912;4.494;2022-10-31T11:52:56;37.40;;;18.67;;
21110;SDS011;10713;51.912;4.494;2022-10-31T11:55:32;39.63;;;19.00;;
21110;SDS011;10713;51.912;4.494;2022-10-31T11:57:59;38.33;;;18.80;;
21110;SDS011;10713;51.912;4.494;2022-10-31T12:03:03;36.85;;;18.80;;
21110;SDS011;10713;51.912;4.494;2022-10-31T12:05:29;43.72;;;20.60;;
21110;SDS011;10713;51.912;4.494;2022-10-31T12:07:58;45.70;;;20.33;;
21110;SDS011;10713;51.912;4.494;2022-10-31T12:10:27;44.08;;;20.30;;
21110;SDS011;10713;51.912;4.494;2022-10-31T12:13:03;42.60;;;21.90;;
21110;SDS011;10713;51.912;4.494;2022-10-31T12:15:38;49.60;;;22.00;;
21110;SDS011;10713;51.912;4.494;2022-10-31T12:18:27;45.78;;;20.80;;
21110;SDS011;10713;51.912;4.494;2022-10-31T12:23:38;50.78;;;22.45;;
21110;SDS011;10713;51.912;4.494;2022-10-31T12:26:13;54.97;;;23.08;;
21110;SDS011;10713;51.912;4.494;2022-10-31T12:32:29;67.35;;;26.42;;
21110;SDS011;10713;51.912;4.494;2022-10-31T12:51:28;59.75;;;24.52;;
21110;SDS011;10713;51.912;4.494;2022-10-31T12:59:38;58.60;;;24.35;;
21110;SDS011;10713;51.912;4.494;2022-10-31T13:02:21;60.28;;;24.15;;
21110;SDS011;10713;51.912;4.494;2022-10-31T13:04:59;66.32;;;26.77;;
21110;SDS011;10713;51.912;4.494;2022-10-31T13:07:37;62.75;;;26.00;;
21110;SDS011;10713;51.912;4.494;2022-10-31T13:12:37;57.83;;;24.27;;
21110;SDS011;10713;51.912;4.494;2022-10-31T13:15:05;58.88;;;26.35;;
21110;SDS011;10713;51.912;4.494;2022-10-31T13:17:38;52.97;;;24.38;;
21110;SDS011;10713;51.912;4.494;2022-10-31T13:20:41;51.33;;;23.58;;
21110;SDS011;10713;51.912;4.494;2022-10-31T13:23:09;59.90;;;24.10;;
21110;SDS011;10713;51.912;4.494;2022-10-31T13:25:43;74.47;;;29.65;;
21110;SDS011;10713;51.912;4.494;2022-10-31T13:28:31;62.90;;;27.40;;
21110;SDS011;10713;51.912;4.494;2022-10-31T13:31:01;63.13;;;25.45;;
21110;SDS011;10713;51.912;4.494;2022-10-31T13:38:33;57.38;;;25.25;;
21110;SDS011;10713;51.912;4.494;2022-10-31T13:41:21;63.25;;;26.17;;
21110;SDS011;10713;51.912;4.494;2022-10-31T13:44:00;54.58;;;24.35;;
21110;SDS011;10713;51.912;4.494;2022-10-31T13:48:57;59.53;;;24.67;;
21110;SDS011;10713;51.912;4.494;2022-10-31T13:51:41;68.60;;;28.35;;
21110;SDS011;10713;51.912;4.494;2022-10-31T13:54:19;58.95;;;26.02;;
21110;SDS011;10713;51.912;4.494;2022-10-31T13:56:50;60.72;;;27.40;;
21110;SDS011;10713;51.912;4.494;2022-10-31T13:59:21;63.00;;;26.45;;
21110;SDS011;10713;51.912;4.494;2022-10-31T14:01:51;67.95;;;28.65;;
21110;SDS011;10713;51.912;4.494;2022-10-31T14:04:21;66.22;;;27.98;;
21110;SDS011;10713;51.912;4.494;2022-10-31T14:09:26;63.25;;;28.30;;
21110;SDS011;10713;51.912;4.494;2022-10-31T14:11:55;69.55;;;29.67;;
21110;SDS011;10713;51.912;4.494;2022-10-31T14:14:23;62.28;;;27.85;;
21110;SDS011;10713;51.912;4.494;2022-10-31T14:16:55;58.47;;;28.13;;
21110;SDS011;10713;51.912;4.494;2022-10-31T14:19:22;63.05;;;30.27;;
21110;SDS011;10713;51.912;4.494;2022-10-31T14:21:48;66.47;;;30.45;;
21110;SDS011;10713;51.912;4.494;2022-10-31T14:26:56;58.58;;;29.42;;
21110;SDS011;10713;51.912;4.494;2022-10-31T14:29:27;71.60;;;32.35;;
21110;SDS011;10713;51.912;4.494;2022-10-31T14:34:41;66.57;;;31.42;;
21110;SDS011;10713;51.912;4.494;2022-10-31T14:40:33;68.47;;;31.75;;
21110;SDS011;10713;51.912;4.494;2022-10-31T14:46:03;74.10;;;32.35;;
21110;SDS011;10713;51.912;4.494;2022-10-31T14:51:43;68.13;;;32.42;;
21110;SDS011;10713;51.912;4.494;2022-10-31T14:54:25;70.95;;;33.45;;
21110;SDS011;10713;51.912;4.494;2022-10-31T14:57:05;66.20;;;31.58;;
21110;SDS011;10713;51.912;4.494;2022-10-31T14:59:33;77.38;;;34.75;;
21110;SDS011;10713;51.912;4.494;2022-10-31T15:02:08;76.57;;;32.72;;
21110;SDS011;10713;51.912;4.494;2022-10-31T15:04:39;72.38;;;33.28;;
21110;SDS011;10713;51.912;4.494;2022-10-31T15:07:17;70.03;;;31.17;;
21110;SDS011;10713;51.912;4.494;2022-10-31T15:09:54;75.50;;;32.38;;
21110;SDS011;10713;51.912;4.494;2022-10-31T15:12:22;78.43;;;34.67;;
21110;SDS011;10713;51.912;4.494;2022-10-31T15:14:50;75.20;;;34.80;;
21110;SDS011;10713;51.912;4.494;2022-10-31T15:17:15;76.50;;;36.03;;
21110;SDS011;10713;51.912;4.494;2022-10-31T15:19:41;75.40;;;35.38;;
21110;SDS011;10713;51.912;4.494;2022-10-31T15:22:10;70.22;;;35.42;;
21110;SDS011;10713;51.912;4.494;2022-10-31T15:24:40;77.70;;;34.58;;
21110;SDS011;10713;51.912;4.494;2022-10-31T15:27:10;68.07;;;33.97;;
21110;SDS011;10713;51.912;4.494;2022-10-31T15:29:46;78.45;;;34.83;;
21110;SDS011;10713;51.912;4.494;2022-10-31T15:32:18;75.93;;;36.38;;
21110;SDS011;10713;51.912;4.494;2022-10-31T15:34:44;76.88;;;34.97;;
21110;SDS011;10713;51.912;4.494;2022-10-31T15:37:11;73.80;;;33.97;;
21110;SDS011;10713;51.912;4.494;2022-10-31T15:39:38;76.70;;;34.22;;
21110;SDS011;10713;51.912;4.494;2022-10-31T15:42:05;78.32;;;34.35;;
21110;SDS011;10713;51.912;4.494;2022-10-31T15:44:40;75.93;;;35.20;;
21110;SDS011;10713;51.912;4.494;2022-10-31T15:47:21;74.93;;;34.55;;
21110;SDS011;10713;51.912;4.494;2022-10-31T15:49:58;81.40;;;35.33;;
21110;SDS011;10713;51.912;4.494;2022-10-31T15:52:39;69.53;;;33.13;;
21110;SDS011;10713;51.912;4.494;2022-10-31T15:57:46;75.65;;;34.33;;
21110;SDS011;10713;51.912;4.494;2022-10-31T16:05:44;68.80;;;32.38;;
21110;SDS011;10713;51.912;4.494;2022-10-31T16:10:55;73.15;;;32.60;;
21110;SDS011;10713;51.912;4.494;2022-10-31T16:13:28;72.60;;;30.90;;
21110;SDS011;10713;51.912;4.494;2022-10-31T16:15:59;68.20;;;32.30;;
21110;SDS011;10713;51.912;4.494;2022-10-31T16:18:27;68.97;;;31.45;;
21110;SDS011;10713;51.912;4.494;2022-10-31T16:20:59;65.07;;;30.42;;
21110;SDS011;10713;51.912;4.494;2022-10-31T16:23:25;64.22;;;28.40;;
21110;SDS011;10713;51.912;4.494;2022-10-31T16:25:52;71.25;;;29.77;;
21110;SDS011;10713;51.912;4.494;2022-10-31T16:28:22;63.70;;;30.67;;
21110;SDS011;10713;51.912;4.494;2022-10-31T16:30:52;65.43;;;30.60;;
21110;SDS011;10713;51.912;4.494;2022-10-31T16:33:33;62.55;;;29.27;;
21110;SDS011;10713;51.912;4.494;2022-10-31T16:36:13;59.08;;;26.27;;
21110;SDS011;10713;51.912;4.494;2022-10-31T16:38:52;54.35;;;29.52;;
21110;SDS011;10713;51.912;4.494;2022-10-31T16:41:18;49.20;;;22.85;;
21110;SDS011;10713;51.912;4.494;2022-10-31T16:43:43;59.72;;;26.80;;
21110;SDS011;10713;51.912;4.494;2022-10-31T16:46:12;55.70;;;25.90;;
21110;SDS011;10713;51.912;4.494;2022-10-31T16:48:40;54.72;;;25.92;;
21110;SDS011;10713;51.912;4.494;2022-10-31T16:51:06;52.53;;;25.20;;
21110;SDS011;10713;51.912;4.494;2022-10-31T16:53:32;46.03;;;24.85;;
21110;SDS011;10713;51.912;4.494;2022-10-31T16:55:58;52.13;;;23.98;;